Time;durP1;ratioP1;P1;durP2;ratioP2;P2;SDS_P1;SDS_P2;PMS_P1;PMS_P2;Temp;Humidity;BMP_temperature;BMP_pressure;BME280_temperature;BME280_humidity;BME280_pressure;Samples;Min_cycle;Max_cycle;Signal;HPM_P1;HPM_P2
2021/06/02 00:00:17;;;;;;;12.52;7.35;;;12.50;83.40;;;;;;5027778;28;20025;-71
2021/06/02 00:02:47;;;;;;;7.88;6.25;;;12.70;82.40;;;;;;5025431;28;20163;-68
2021/06/02 00:05:15;;;;;;;8.60;6.45;;;12.80;82.20;;;;;;5028068;28;20061;-71
2021/06/02 00:07:43;;;;;;;11.23;6.05;;;12.90;81.40;;;;;;5027365;28;20029;-64
2021/06/02 00:10:12;;;;;;;13.60;6.57;;;13.10;81.70;;;;;;5027281;28;20140;-67
2021/06/02 00:12:39;;;;;;;10.90;8.07;;;13.30;80.80;;;;;;5027520;28;20033;-67
2021/06/02 00:15:09;;;;;;;8.00;6.25;;;13.50;80.20;;;;;;5027810;28;20022;-65
2021/06/02 00:17:36;;;;;;;10.65;6.93;;;13.70;78.80;;;;;;5028534;28;20071;-65
2021/06/02 00:20:08;;;;;;;9.35;6.35;;;13.90;78.00;;;;;;5025365;28;20033;-64
2021/06/02 00:22:35;;;;;;;7.80;6.70;;;14.00;77.80;;;;;;5026645;28;20037;-72
2021/06/02 00:25:03;;;;;;;8.25;6.30;;;14.20;76.30;;;;;;5028113;28;20033;-71
2021/06/02 00:27:31;;;;;;;8.10;5.28;;;14.30;75.40;;;;;;5028818;28;20100;-66
2021/06/02 00:30:03;;;;;;;6.70;5.85;;;14.40;74.40;;;;;;5026943;28;20108;-66
2021/06/02 00:32:30;;;;;;;9.98;6.63;;;14.50;74.50;;;;;;5027612;28;20100;-65
2021/06/02 00:34:59;;;;;;;8.93;5.70;;;14.60;74.70;;;;;;5029600;28;20061;-66
2021/06/02 00:37:28;;;;;;;8.07;5.85;;;14.80;73.70;;;;;;5027394;28;20382;-66
2021/06/02 00:39:56;;;;;;;12.07;5.97;;;14.90;72.80;;;;;;5027106;28;20449;-66
2021/06/02 00:42:29;;;;;;;8.93;6.20;;;15.10;71.20;;;;;;5024513;28;20462;-67
2021/06/02 00:44:56;;;;;;;;;;;15.30;70.10;;;;;;5026853;28;20053;-70
2021/06/02 00:47:24;;;;;;;8.95;5.68;;;15.40;69.80;;;;;;5022949;28;20270;-65
2021/06/02 00:49:52;;;;;;;16.52;9.05;;;15.50;69.90;;;;;;5026864;28;20597;-70
2021/06/02 00:52:19;;;;;;;9.00;6.40;;;15.60;68.50;;;;;;5026829;28;20437;-70
2021/06/02 00:54:46;;;;;;;13.52;5.80;;;15.80;68.10;;;;;;5027278;28;20081;-67
2021/06/02 00:57:19;;;;;;;9.40;5.75;;;16.00;67.60;;;;;;5026535;28;20021;-72
2021/06/02 00:59:49;;;;;;;;;;;16.10;67.60;;;;;;5023034;28;20070;-70
2021/06/02 01:02:20;;;;;;;11.30;6.65;;;16.20;67.40;;;;;;5020460;28;19936;-72
2021/06/02 01:04:49;;;;;;;10.70;5.78;;;16.40;67.10;;;;;;5019448;28;20017;-65
2021/06/02 01:07:17;;;;;;;7.90;5.88;;;16.60;67.40;;;;;;5020569;28;20021;-65
2021/06/02 01:09:49;;;;;;;7.95;6.45;;;16.70;65.10;;;;;;5018464;28;20029;-69
2021/06/02 01:12:18;;;;;;;7.23;5.97;;;16.80;66.20;;;;;;5021307;28;20038;-66
2021/06/02 01:14:46;;;;;;;7.30;6.22;;;17.00;65.80;;;;;;5018803;28;20029;-65
2021/06/02 01:17:19;;;;;;;8.90;6.35;;;17.10;65.20;;;;;;5018752;28;20094;-70
2021/06/02 01:19:47;;;;;;;10.73;6.63;;;17.30;64.20;;;;;;5018708;28;20511;-69
2021/06/02 01:22:15;;;;;;;15.93;9.98;;;17.40;64.50;;;;;;5019018;28;20629;-66
2021/06/02 01:24:42;;;;;;;10.95;9.00;;;17.50;63.90;;;;;;5021256;28;20026;-65
2021/06/02 01:27:11;;;;;;;12.77;9.15;;;17.60;63.60;;;;;;5019042;28;20654;-71
2021/06/02 01:29:47;;;;;;;9.32;7.30;;;17.70;64.10;;;;;;5016648;28;20029;-65
2021/06/02 01:32:51;;;;;;;7.93;6.30;;;17.80;64.10;;;;;;5021972;28;20033;-66
2021/06/02 01:35:36;;;;;;;8.30;6.47;;;17.90;62.50;;;;;;5023577;28;20029;-65
2021/06/02 01:38:24;;;;;;;6.05;5.38;;;18.10;62.50;;;;;;5021491;28;20035;-67
2021/06/02 01:41:28;;;;;;;9.05;5.72;;;18.10;62.10;;;;;;5018462;28;20074;-66
2021/06/02 01:44:32;;;;;;;7.38;5.60;;;18.20;61.80;;;;;;5017887;28;20421;-69
2021/06/02 01:47:20;;;;;;;6.25;5.47;;;18.30;61.10;;;;;;5020884;28;20083;-65
2021/06/02 01:50:23;;;;;;;6.38;5.60;;;18.40;61.70;;;;;;5018241;28;20013;-72
2021/06/02 01:53:27;;;;;;;7.10;5.72;;;18.50;61.80;;;;;;5016930;28;20638;-72
2021/06/02 01:56:15;;;;;;;9.93;6.43;;;18.70;60.40;;;;;;5019342;28;20108;-66
2021/06/02 01:59:00;;;;;;;9.57;5.20;;;18.70;60.90;;;;;;5020713;28;20025;-65
2021/06/02 02:02:03;;;;;;;9.05;6.00;;;18.80;61.00;;;;;;5017513;28;20037;-66
2021/06/02 02:05:03;;;;;;;9.07;6.60;;;18.90;61.20;;;;;;4990360;28;20037;-70
2021/06/02 02:08:07;;;;;;;14.73;7.00;;;19.10;60.30;;;;;;5018219;28;20366;-69
2021/06/02 02:10:54;;;;;;;7.70;6.10;;;19.20;60.40;;;;;;5022005;28;20037;-70
2021/06/02 02:13:50;;;;;;;6.85;5.45;;;19.30;59.40;;;;;;5022911;28;20497;-70
2021/06/02 02:16:42;;;;;;;8.10;4.88;;;19.40;59.30;;;;;;5023717;28;20029;-71
2021/06/02 02:19:37;;;;;;;8.02;4.80;;;19.60;59.30;;;;;;5019391;28;20509;-73
2021/06/02 02:22:27;;;;;;;8.82;4.95;;;19.70;57.80;;;;;;5025002;28;20040;-66
2021/06/02 02:25:00;;;;;;;6.80;4.15;;;19.70;57.90;;;;;;4993616;28;20124;-66
2021/06/02 02:28:11;;;;;;;8.98;5.05;;;19.70;57.60;;;;;;5023260;28;20587;-65
2021/06/02 02:30:45;;;;;;;8.18;4.70;;;19.70;58.50;;;;;;4999348;28;20033;-69
2021/06/02 02:33:44;;;;;;;5.18;3.95;;;19.90;58.10;;;;;;5025064;28;20154;-68
2021/06/02 02:36:26;;;;;;;8.25;4.30;;;20.00;57.10;;;;;;5025087;28;20555;-70
2021/06/02 02:39:30;;;;;;;6.10;4.13;;;20.10;57.80;;;;;;5025282;28;20367;-67
2021/06/02 02:42:42;;;;;;;7.10;3.70;;;20.10;57.30;;;;;;5023497;28;20076;-72
2021/06/02 02:45:27;;;;;;;7.97;4.32;;;20.20;56.70;;;;;;5022428;28;20032;-65
2021/06/02 02:48:14;;;;;;;5.80;4.03;;;20.30;56.80;;;;;;5025172;28;20029;-64
2021/06/02 02:51:12;;;;;;;7.93;4.47;;;20.40;56.60;;;;;;5026092;28;20017;-71
2021/06/02 02:54:02;;;;;;;9.70;4.88;;;20.40;56.80;;;;;;5011301;28;20806;-65
2021/06/02 02:57:11;;;;;;;8.40;4.25;;;20.30;57.40;;;;;;5020205;28;20792;-71
2021/06/02 03:00:07;;;;;;;7.30;4.32;;;20.40;55.70;;;;;;4971788;28;20030;-66
2021/06/02 03:02:53;;;;;;;9.35;5.47;;;20.40;56.70;;;;;;5022256;28;20022;-72
2021/06/02 03:05:36;;;;;;;5.82;3.97;;;20.40;57.10;;;;;;5018869;28;20073;-66
2021/06/02 03:08:23;;;;;;;6.35;3.78;;;20.50;56.80;;;;;;5029034;28;20025;-71
2021/06/02 03:11:01;;;;;;;5.97;3.58;;;20.60;56.00;;;;;;5029438;28;20018;-70
2021/06/02 03:13:54;;;;;;;5.82;3.30;;;20.80;53.50;;;;;;5029446;28;20053;-65
2021/06/02 03:16:34;;;;;;;7.20;6.07;;;20.90;54.10;;;;;;5027824;28;20034;-71
2021/06/02 03:19:16;;;;;;;5.07;3.47;;;21.00;53.70;;;;;;5028628;28;20581;-66
2021/06/02 03:21:49;;;;;;;8.00;4.50;;;21.10;53.40;;;;;;5028510;28;20434;-72
2021/06/02 03:24:27;;;;;;;6.28;3.42;;;21.20;52.80;;;;;;5028808;28;20034;-70
2021/06/02 03:27:31;;;;;;;9.43;3.75;;;21.20;51.00;;;;;;5029357;28;20035;-70
2021/06/02 03:30:13;;;;;;;5.55;3.85;;;21.20;52.40;;;;;;5028417;28;20033;-70
2021/06/02 03:32:49;;;;;;;6.63;3.20;;;21.10;52.50;;;;;;5029003;28;20026;-70
2021/06/02 03:35:43;;;;;;;5.15;3.08;;;21.10;52.80;;;;;;5028648;28;20025;-67
2021/06/02 03:38:47;;;;;;;4.18;2.20;;;21.20;51.60;;;;;;5028537;28;20111;-71
2021/06/02 03:41:38;;;;;;;4.55;2.10;;;21.30;49.90;;;;;;5022238;28;20072;-66
2021/06/02 03:44:16;;;;;;;6.00;2.70;;;21.50;49.40;;;;;;5023028;28;20067;-72
2021/06/02 03:46:53;;;;;;;5.75;2.75;;;21.50;51.00;;;;;;5022493;28;20022;-72
2021/06/02 03:49:42;;;;;;;3.83;2.80;;;21.50;49.90;;;;;;5028487;28;20335;-71
2021/06/02 03:52:19;;;;;;;4.25;2.70;;;21.50;50.60;;;;;;5026164;28;20025;-67
2021/06/02 03:55:07;;;;;;;6.38;2.92;;;21.60;49.90;;;;;;5020130;28;20044;-66
2021/06/02 03:57:51;;;;;;;4.85;2.05;;;21.60;50.60;;;;;;4673080;28;10000183;-67
2021/06/02 04:00:24;;;;;;;6.15;2.67;;;21.60;48.60;;;;;;5019568;28;20084;-65
2021/06/02 04:03:03;;;;;;;7.07;2.28;;;21.60;49.40;;;;;;5029197;28;20035;-71
2021/06/02 04:05:33;;;;;;;5.10;1.98;;;21.50;50.00;;;;;;5020350;28;20029;-65
2021/06/02 04:08:37;;;;;;;4.80;2.22;;;21.60;49.00;;;;;;5024768;28;20033;-66
2021/06/02 04:11:29;;;;;;;2.53;1.80;;;21.60;49.00;;;;;;5025271;28;20064;-66
2021/06/02 04:14:05;;;;;;;4.67;2.33;;;21.80;49.30;;;;;;5019923;28;20029;-74
2021/06/02 04:16:42;;;;;;;4.03;1.80;;;21.80;48.50;;;;;;5025915;28;20032;-75
2021/06/02 04:19:15;;;;;;;3.45;1.83;;;21.90;49.00;;;;;;5025048;28;20147;-71
2021/06/02 04:21:45;;;;;;;3.35;2.03;;;22.00;48.80;;;;;;5022390;28;20032;-71
2021/06/02 04:24:15;;;;;;;3.58;2.17;;;22.00;49.40;;;;;;5027056;28;20024;-64
2021/06/02 04:26:43;;;;;;;4.20;1.60;;;22.00;49.20;;;;;;5030310;28;20470;-71
2021/06/02 04:29:12;;;;;;;2.63;1.73;;;22.00;48.00;;;;;;5027592;28;20100;-68
2021/06/02 04:31:53;;;;;;;3.78;1.48;;;22.10;48.10;;;;;;5026437;28;20029;-71
2021/06/02 04:34:21;;;;;;;3.97;1.88;;;22.00;47.60;;;;;;5024192;28;20033;-70
2021/06/02 04:37:00;;;;;;;3.88;1.67;;;22.10;48.20;;;;;;5025211;28;20096;-69
2021/06/02 04:39:28;;;;;;;3.92;1.63;;;22.10;47.00;;;;;;5027567;28;20028;-65
2021/06/02 04:42:01;;;;;;;6.45;2.00;;;22.10;47.40;;;;;;5026996;28;20017;-69
2021/06/02 04:44:28;;;;;;;;;;;22.00;47.40;;;;;;5025434;28;20056;-65
2021/06/02 04:46:56;;;;;;;2.63;1.70;;;22.00;48.40;;;;;;5027604;28;19908;-66
2021/06/02 04:50:07;;;;;;;4.05;1.85;;;21.90;48.90;;;;;;5025663;28;20164;-65
2021/06/02 04:52:52;;;;;;;3.50;1.98;;;21.90;49.00;;;;;;5017360;28;20096;-67
2021/06/02 04:55:41;;;;;;;8.73;1.75;;;21.90;49.10;;;;;;5028052;28;20040;-69
2021/06/02 04:58:16;;;;;;;5.15;1.58;;;21.90;48.50;;;;;;5024245;28;20852;-70
2021/06/02 05:01:19;;;;;;;4.18;2.00;;;21.80;48.00;;;;;;5029172;28;20009;-71
2021/06/02 05:03:50;;;;;;;2.72;1.65;;;21.80;47.80;;;;;;5026966;28;20030;-71
2021/06/02 05:06:39;;;;;;;2.92;1.80;;;21.90;47.70;;;;;;5028486;28;20071;-69
2021/06/02 05:09:24;;;;;;;4.57;1.77;;;22.10;46.70;;;;;;5022449;28;20022;-73
2021/06/02 05:12:10;;;;;;;2.95;1.60;;;22.30;45.60;;;;;;5033633;28;20025;-71
2021/06/02 05:15:13;;;;;;;5.25;1.55;;;22.60;44.60;;;;;;5028066;28;20934;-67
2021/06/02 05:17:56;;;;;;;2.38;1.30;;;22.70;43.90;;;;;;5020301;28;20029;-66
2021/06/02 05:22:04;;;;;;;3.50;1.45;;;23.00;44.10;;;;;;5026289;28;20022;-70
2021/06/02 05:24:06;;;;;;;5.05;1.83;;;23.00;43.70;;;;;;5023295;28;20045;-70
2021/06/02 05:26:42;;;;;;;4.85;1.58;;;22.80;43.40;;;;;;5025711;28;20138;-71
2021/06/02 05:29:36;;;;;;;5.03;1.85;;;22.90;44.10;;;;;;5024391;28;20484;-70
2021/06/02 05:32:18;;;;;;;4.32;2.20;;;22.80;43.50;;;;;;5017951;28;20517;-66
2021/06/02 05:35:22;;;;;;;5.43;2.72;;;22.80;44.50;;;;;;5014382;28;20030;-68
2021/06/02 05:38:25;;;;;;;2.92;1.92;;;22.80;45.10;;;;;;5022933;28;20104;-73
2021/06/02 05:41:15;;;;;;;3.58;2.20;;;22.70;45.00;;;;;;5019313;28;20498;-68
2021/06/02 05:44:19;;;;;;;4.22;1.73;;;22.60;45.10;;;;;;5024236;28;20739;-66
2021/06/02 05:47:04;;;;;;;6.03;2.10;;;22.50;45.20;;;;;;5024994;28;20029;-65
2021/06/02 05:49:56;;;;;;;8.52;1.85;;;22.30;44.80;;;;;;5025913;28;20513;-67
2021/06/02 05:52:59;;;;;;;7.07;1.58;;;21.70;47.40;;;;;;5027264;28;20494;-66
2021/06/02 05:55:51;;;;;;;5.60;2.22;;;21.00;48.10;;;;;;5031091;28;20132;-69
2021/06/02 05:58:54;;;;;;;7.32;1.77;;;20.50;49.10;;;;;;5031262;28;20025;-70
2021/06/02 06:01:39;;;;;;;4.65;1.77;;;20.10;50.50;;;;;;5021336;28;20041;-69
2021/06/02 06:04:24;;;;;;;8.20;4.05;;;19.80;51.40;;;;;;5025747;28;20025;-65
2021/06/02 06:07:28;;;;;;;8.77;6.85;;;19.60;51.80;;;;;;5020066;28;20025;-66
2021/06/02 06:10:16;;;;;;;4.15;3.20;;;19.40;52.90;;;;;;5021754;28;20057;-66
2021/06/02 06:13:21;;;;;;;8.43;4.32;;;19.20;53.10;;;;;;5019280;28;20021;-66
2021/06/02 06:16:13;;;;;;;12.68;10.88;;;19.10;53.80;;;;;;5016955;28;20018;-65
2021/06/02 06:19:21;;;;;;;5.00;1.90;;;18.90;54.30;;;;;;5018751;28;20045;-68
2021/06/02 06:22:14;;;;;;;5.40;1.70;;;19.00;55.30;;;;;;5019264;28;20013;-70
2021/06/02 06:24:55;;;;;;;4.25;2.30;;;19.10;55.10;;;;;;5021276;28;20437;-64
2021/06/02 06:28:06;;;;;;;7.38;2.20;;;19.00;55.90;;;;;;5021727;28;20026;-70
2021/06/02 06:30:35;;;;;;;3.42;1.92;;;18.80;56.80;;;;;;4997663;28;20440;-66
2021/06/02 06:33:09;;;;;;;3.50;1.90;;;18.60;57.70;;;;;;5025277;28;20021;-65
2021/06/02 06:35:38;;;;;;;4.07;1.83;;;18.50;58.50;;;;;;5025585;28;20025;-65
2021/06/02 06:38:26;;;;;;;5.45;2.15;;;18.30;59.20;;;;;;5021985;28;20029;-66
2021/06/02 06:40:55;;;;;;;3.58;2.45;;;18.10;60.40;;;;;;5019414;28;20083;-65
2021/06/02 06:43:24;;;;;;;7.57;2.55;;;17.80;62.00;;;;;;5018273;28;20021;-66
2021/06/02 06:45:56;;;;;;;4.70;1.90;;;17.60;63.30;;;;;;5021258;28;20572;-67
2021/06/02 06:48:25;;;;;;;5.63;2.03;;;17.50;64.20;;;;;;5018244;28;20029;-67
2021/06/02 06:50:57;;;;;;;6.90;2.45;;;17.40;64.90;;;;;;5020785;28;20140;-64
2021/06/02 06:53:26;;;;;;;4.88;2.38;;;17.20;65.20;;;;;;5020445;28;20030;-66
2021/06/02 06:55:55;;;;;;;6.15;2.50;;;17.00;66.60;;;;;;5018817;28;20034;-63
2021/06/02 06:58:24;;;;;;;5.43;2.47;;;16.80;67.50;;;;;;5022949;28;20036;-64
2021/06/02 07:00:52;;;;;;;7.95;3.28;;;16.70;68.40;;;;;;5016626;28;20040;-64
2021/06/02 07:03:20;;;;;;;5.22;2.95;;;16.60;69.00;;;;;;5023577;28;20076;-64
2021/06/02 07:05:48;;;;;;;7.40;3.47;;;16.50;69.80;;;;;;5020865;28;20561;-65
2021/06/02 07:08:16;;;;;;;7.70;3.20;;;16.40;70.70;;;;;;5026029;28;20060;-68
2021/06/02 07:10:43;;;;;;;6.93;3.40;;;16.30;71.20;;;;;;5020215;28;20033;-75
2021/06/02 07:13:14;;;;;;;7.10;3.22;;;16.10;71.10;;;;;;5020450;28;20116;-63
2021/06/02 07:15:42;;;;;;;6.07;3.25;;;16.00;71.60;;;;;;5020283;28;20025;-67
2021/06/02 07:18:09;;;;;;;9.10;3.35;;;15.80;71.90;;;;;;5023058;28;21000;-66
2021/06/02 07:20:37;;;;;;;9.25;3.47;;;15.70;72.30;;;;;;5016520;28;20017;-68
2021/06/02 07:23:04;;;;;;;9.27;3.22;;;15.50;72.90;;;;;;5019515;28;20688;-64
2021/06/02 07:25:33;;;;;;;9.90;3.40;;;15.30;73.70;;;;;;5017531;28;20802;-63
2021/06/02 07:28:03;;;;;;;9.02;3.55;;;15.10;74.20;;;;;;5015992;28;20071;-70
2021/06/02 07:30:30;;;;;;;11.23;3.50;;;15.00;74.80;;;;;;5016136;28;20029;-65
2021/06/02 07:32:58;;;;;;;19.20;5.00;;;14.90;75.30;;;;;;5017783;28;20057;-65
2021/06/02 07:35:25;;;;;;;21.73;4.53;;;14.90;75.70;;;;;;5018728;28;20127;-64
2021/06/02 07:37:53;;;;;;;17.77;4.72;;;14.90;75.20;;;;;;5021753;28;20045;-64
2021/06/02 07:40:20;;;;;;;25.67;5.85;;;14.90;75.70;;;;;;5022038;28;20524;-65
2021/06/02 07:42:47;;;;;;;27.15;5.88;;;14.90;75.50;;;;;;5015816;28;20025;-66
2021/06/02 07:45:15;;;;;;;20.30;5.07;;;14.90;75.40;;;;;;5018770;28;20042;-63
2021/06/02 07:47:42;;;;;;;32.80;6.38;;;14.80;75.60;;;;;;5012394;28;20025;-63
2021/06/02 07:50:10;;;;;;;27.83;6.47;;;14.80;75.60;;;;;;5011107;28;20033;-70
2021/06/02 07:52:37;;;;;;;21.92;5.82;;;14.90;75.40;;;;;;5015422;28;20149;-66
2021/06/02 07:55:05;;;;;;;19.45;5.88;;;14.90;74.80;;;;;;5014148;28;20030;-67
2021/06/02 07:57:32;;;;;;;14.65;5.05;;;14.90;74.80;;;;;;5013845;28;20076;-69
2021/06/02 07:59:59;;;;;;;14.60;4.57;;;14.90;74.20;;;;;;5017452;28;20370;-63
2021/06/02 08:02:26;;;;;;;17.42;4.05;;;14.90;74.20;;;;;;5018890;28;20033;-64
2021/06/02 08:04:53;;;;;;;15.85;4.35;;;14.80;74.30;;;;;;5015981;28;20029;-66
2021/06/02 08:07:20;;;;;;;9.85;3.65;;;14.70;74.80;;;;;;5017604;28;20049;-68
2021/06/02 08:09:50;;;;;;;9.18;3.55;;;14.60;74.90;;;;;;5014534;28;20029;-64
2021/06/02 08:12:17;;;;;;;11.40;3.78;;;14.50;75.30;;;;;;5020100;28;20452;-65
2021/06/02 08:14:44;;;;;;;8.32;3.67;;;14.50;75.90;;;;;;5023846;28;20468;-65
2021/06/02 08:17:11;;;;;;;7.25;3.80;;;14.40;76.70;;;;;;5022377;28;20036;-62
2021/06/02 08:19:38;;;;;;;5.35;3.88;;;14.30;77.50;;;;;;5017709;28;20056;-68
2021/06/02 08:22:06;;;;;;;9.82;3.63;;;14.20;77.40;;;;;;5014255;28;20041;-65
2021/06/02 08:24:42;;;;;;;12.15;3.60;;;14.10;78.30;;;;;;5015083;28;20030;-67
2021/06/02 08:27:13;;;;;;;7.90;3.45;;;14.20;78.30;;;;;;5017049;28;20525;-65
2021/06/02 08:29:40;;;;;;;5.72;2.92;;;14.20;78.50;;;;;;5016885;28;20036;-69
2021/06/02 08:32:08;;;;;;;8.70;3.60;;;14.10;77.80;;;;;;5013865;28;20117;-69
2021/06/02 08:34:36;;;;;;;6.20;2.78;;;14.10;79.20;;;;;;5016718;28;20116;-69
2021/06/02 08:37:06;;;;;;;7.10;3.30;;;14.00;79.70;;;;;;5015636;28;20025;-69
2021/06/02 08:39:33;;;;;;;9.38;3.50;;;13.90;80.70;;;;;;5014175;28;20128;-69
2021/06/02 08:42:00;;;;;;;9.10;3.97;;;13.90;79.70;;;;;;5014801;28;20081;-65
2021/06/02 08:44:27;;;;;;;4.57;2.90;;;13.90;79.10;;;;;;5020090;28;20057;-66
2021/06/02 08:46:55;;;;;;;6.93;3.10;;;13.80;80.60;;;;;;5010995;28;20022;-65
2021/06/02 08:49:22;;;;;;;7.75;2.92;;;13.70;81.50;;;;;;5016944;28;20033;-65
2021/06/02 08:51:52;;;;;;;8.32;3.25;;;13.70;80.60;;;;;;5020391;28;20502;-67
2021/06/02 08:54:22;;;;;;;9.05;3.22;;;13.60;80.40;;;;;;5015326;28;20052;-68
2021/06/02 08:56:49;;;;;;;6.22;2.78;;;13.40;81.60;;;;;;5010988;28;20113;-67
2021/06/02 08:59:18;;;;;;;5.82;3.20;;;13.30;82.10;;;;;;5014228;28;20026;-68
2021/06/02 09:01:45;;;;;;;12.15;3.20;;;13.20;83.30;;;;;;5017038;28;20455;-68
2021/06/02 09:04:13;;;;;;;7.15;3.10;;;13.20;83.70;;;;;;5014115;28;20025;-64
2021/06/02 09:06:45;;;;;;;6.47;3.97;;;13.20;83.40;;;;;;5010267;28;20101;-70
2021/06/02 09:09:17;;;;;;;11.77;5.25;;;13.20;84.00;;;;;;5015230;28;20018;-65
2021/06/02 09:11:48;;;;;;;8.93;4.70;;;13.20;84.00;;;;;;5011086;28;20079;-64
2021/06/02 09:14:38;;;;;;;11.07;4.43;;;13.20;83.70;;;;;;5012995;28;20100;-67
2021/06/02 09:17:08;;;;;;;14.30;5.50;;;13.20;83.80;;;;;;5020107;28;20028;-67
2021/06/02 09:19:44;;;;;;;8.05;4.97;;;13.10;84.40;;;;;;5019781;28;20032;-66
2021/06/02 09:22:16;;;;;;;10.30;4.38;;;13.00;85.80;;;;;;5057822;23;20053;-70
2021/06/02 09:24:59;;;;;;;10.50;5.20;;;13.00;86.30;;;;;;5021789;28;20033;-65
2021/06/02 09:27:57;;;;;;;13.23;5.57;;;13.10;85.80;;;;;;5017536;28;20046;-67
2021/06/02 09:30:26;;;;;;;9.30;5.45;;;13.20;85.10;;;;;;5022035;28;20652;-70
2021/06/02 09:32:58;;;;;;;10.40;5.38;;;13.10;84.60;;;;;;5020602;28;20135;-67
2021/06/02 09:35:43;;;;;;;15.23;6.05;;;13.00;84.80;;;;;;5020307;28;20025;-70
2021/06/02 09:38:31;;;;;;;13.02;6.35;;;12.80;84.60;;;;;;5022391;28;20025;-63
2021/06/02 09:40:58;;;;;;;12.13;6.47;;;12.80;85.70;;;;;;5017895;28;20083;-66
2021/06/02 09:43:33;;;;;;;12.18;5.53;;;12.60;86.80;;;;;;5021901;28;20028;-69
2021/06/02 09:46:14;;;;;;;13.95;5.95;;;12.70;87.00;;;;;;5022533;28;20033;-66
2021/06/02 09:48:48;;;;;;;11.10;5.55;;;12.60;85.80;;;;;;5022668;28;20055;-69
2021/06/02 09:51:38;;;;;;;16.20;9.15;;;12.50;86.00;;;;;;5025980;28;20059;-66
2021/06/02 09:54:07;;;;;;;22.00;13.85;;;12.40;86.00;;;;;;5022696;28;20435;-71
2021/06/02 09:56:35;;;;;;;13.30;9.48;;;12.20;86.90;;;;;;5023013;28;20099;-73
2021/06/02 09:59:04;;;;;;;15.35;9.60;;;12.10;87.20;;;;;;5023803;28;20493;-72
2021/06/02 10:01:53;;;;;;;17.25;10.63;;;11.90;87.80;;;;;;5021982;28;20453;-73
2021/06/02 10:04:31;;;;;;;14.50;9.93;;;11.80;88.00;;;;;;5010757;28;20026;-67
2021/06/02 10:06:58;;;;;;;20.10;14.20;;;11.80;88.70;;;;;;5023832;28;20038;-67
2021/06/02 10:09:34;;;;;;;23.33;17.95;;;11.70;89.40;;;;;;5022395;28;20021;-67
2021/06/02 10:12:04;;;;;;;11.85;8.57;;;11.60;89.10;;;;;;5024749;28;20701;-65
2021/06/02 10:14:32;;;;;;;12.15;7.43;;;11.60;89.10;;;;;;5022651;28;20029;-65
2021/06/02 10:16:59;;;;;;;11.32;7.80;;;11.60;89.50;;;;;;5030332;28;20030;-69
2021/06/02 10:19:43;;;;;;;14.70;8.52;;;11.50;89.60;;;;;;5021558;28;20666;-69
2021/06/02 10:22:29;;;;;;;19.67;9.05;;;11.60;89.60;;;;;;5024142;28;20041;-66
2021/06/02 10:24:59;;;;;;;21.70;8.82;;;11.60;89.50;;;;;;5021282;28;20038;-66
2021/06/02 10:27:26;;;;;;;23.30;9.90;;;11.60;89.70;;;;;;5027469;28;20032;-68
2021/06/02 10:29:55;;;;;;;23.60;10.23;;;11.50;89.80;;;;;;5022087;28;20051;-65
2021/06/02 10:32:24;;;;;;;21.95;10.82;;;11.50;90.10;;;;;;5028490;28;20493;-68
2021/06/02 10:34:52;;;;;;;28.98;11.35;;;11.50;90.00;;;;;;5025916;28;20025;-67
2021/06/02 10:37:22;;;;;;;26.27;10.13;;;11.50;90.20;;;;;;5026624;28;20540;-66
2021/06/02 10:40:04;;;;;;;19.73;10.32;;;11.50;90.20;;;;;;5027549;28;20696;-65
2021/06/02 10:42:57;;;;;;;23.88;10.60;;;11.40;90.20;;;;;;5040198;28;20020;-70
2021/06/02 10:45:32;;;;;;;17.15;9.40;;;11.50;90.10;;;;;;5023036;28;20551;-65
2021/06/02 10:48:05;;;;;;;18.23;10.00;;;11.60;90.00;;;;;;5026950;28;20044;-67
2021/06/02 10:50:39;;;;;;;;;;;11.70;90.20;;;;;;5026078;28;20029;-66
2021/06/02 10:53:25;;;;;;;14.30;8.05;;;11.60;90.20;;;;;;5025518;28;19974;-64
2021/06/02 10:55:57;;;;;;;18.02;9.10;;;11.60;90.40;;;;;;5022893;28;20036;-66
2021/06/02 10:58:30;;;;;;;15.50;8.45;;;11.60;90.20;;;;;;5022627;28;20072;-65
2021/06/02 11:01:06;;;;;;;14.82;8.65;;;11.70;90.20;;;;;;5022322;28;20033;-65
2021/06/02 11:03:34;;;;;;;15.65;8.52;;;11.60;90.40;;;;;;5024156;28;20390;-66
2021/06/02 11:06:16;;;;;;;20.58;10.15;;;11.60;90.70;;;;;;5023992;28;21036;-65
2021/06/02 11:08:49;;;;;;;18.15;8.75;;;11.60;90.60;;;;;;5025926;28;20124;-66
2021/06/02 11:11:41;;;;;;;26.77;8.68;;;11.70;90.60;;;;;;5023514;28;20025;-67
2021/06/02 11:14:18;;;;;;;19.98;8.30;;;11.60;90.70;;;;;;5023230;28;20332;-70
2021/06/02 11:17:00;;;;;;;30.02;8.60;;;11.60;90.90;;;;;;5021138;28;20029;-66
2021/06/02 11:19:37;;;;;;;26.83;9.02;;;11.60;91.40;;;;;;5021764;28;20028;-72
2021/06/02 11:22:06;;;;;;;34.90;10.63;;;11.80;90.70;;;;;;4674343;28;10000045;-67
2021/06/02 11:24:42;;;;;;;23.08;8.23;;;11.80;90.70;;;;;;5023348;28;20128;-68
2021/06/02 11:27:15;;;;;;;24.58;8.13;;;11.80;90.70;;;;;;5023873;28;20489;-68
2021/06/02 11:29:51;;;;;;;22.92;8.27;;;11.80;90.70;;;;;;5026553;28;20029;-67
2021/06/02 11:32:21;;;;;;;22.88;7.25;;;11.80;90.80;;;;;;5020623;28;20982;-67
2021/06/02 11:34:52;;;;;;;16.65;7.07;;;11.90;91.10;;;;;;5026900;28;20100;-69
2021/06/02 11:37:25;;;;;;;22.33;7.03;;;12.00;90.70;;;;;;5020534;28;20390;-70
2021/06/02 11:39:54;;;;;;;;;;;12.10;90.40;;;;;;5031083;28;20738;-71
2021/06/02 11:42:28;;;;;;;24.38;6.72;;;12.20;90.30;;;;;;5020051;28;19913;-67
2021/06/02 11:45:18;;;;;;;17.48;6.00;;;12.40;89.80;;;;;;5027531;28;20037;-68
2021/06/02 11:47:56;;;;;;;18.52;6.10;;;12.40;90.00;;;;;;5017995;28;20038;-68
2021/06/02 11:50:26;;;;;;;22.20;7.43;;;12.60;88.60;;;;;;5030345;28;20124;-72
2021/06/02 11:53:00;;;;;;;21.73;6.47;;;12.60;87.90;;;;;;5028655;28;20138;-69
2021/06/02 11:55:29;;;;;;;12.50;5.75;;;12.60;88.00;;;;;;5021992;28;20118;-66
2021/06/02 11:57:56;;;;;;;12.57;5.82;;;12.50;88.80;;;;;;5020551;28;20018;-69
2021/06/02 12:00:28;;;;;;;16.02;5.47;;;12.50;89.30;;;;;;5023244;28;20037;-66
2021/06/02 12:03:01;;;;;;;11.03;6.07;;;12.50;89.20;;;;;;5020672;28;20298;-65
2021/06/02 12:05:32;;;;;;;10.20;5.57;;;12.50;88.50;;;;;;5017983;28;20034;-64
2021/06/02 12:08:06;;;;;;;9.77;5.00;;;12.30;89.00;;;;;;5024992;28;20425;-72
2021/06/02 12:10:47;;;;;;;11.63;5.88;;;12.30;89.20;;;;;;5024583;28;20071;-69
2021/06/02 12:13:30;;;;;;;8.20;5.30;;;12.20;89.60;;;;;;5024153;28;20136;-70
2021/06/02 12:16:02;;;;;;;9.18;6.13;;;12.10;89.50;;;;;;5024920;28;20341;-69
2021/06/02 12:18:36;;;;;;;9.95;6.55;;;12.10;89.80;;;;;;5024925;28;20114;-69
2021/06/02 12:21:26;;;;;;;12.75;6.32;;;12.00;90.20;;;;;;5025371;28;20044;-70
2021/06/02 12:23:58;;;;;;;14.60;7.22;;;12.00;90.10;;;;;;5026165;28;20132;-67
2021/06/02 12:26:46;;;;;;;12.32;6.88;;;11.90;90.30;;;;;;5018627;28;20109;-66
2021/06/02 12:29:18;;;;;;;17.05;7.97;;;11.80;90.40;;;;;;5031146;28;20033;-71
2021/06/02 12:31:46;;;;;;;12.18;8.32;;;11.80;90.70;;;;;;5032043;28;20052;-67
2021/06/02 12:34:18;;;;;;;16.20;8.07;;;11.70;90.60;;;;;;5026519;28;20086;-70
2021/06/02 12:36:54;;;;;;;16.83;8.80;;;11.70;90.50;;;;;;5025692;28;20048;-64
2021/06/02 12:39:28;;;;;;;8.75;5.45;;;11.60;90.80;;;;;;5025734;28;20036;-65
2021/06/02 12:41:56;;;;;;;11.65;5.32;;;11.50;90.90;;;;;;5027162;28;20434;-66
2021/06/02 12:44:30;;;;;;;10.88;5.03;;;11.40;91.10;;;;;;5027231;28;20021;-66
2021/06/02 12:47:03;;;;;;;21.60;6.88;;;11.40;91.20;;;;;;5027914;28;20715;-68
2021/06/02 12:49:31;;;;;;;16.25;8.15;;;11.30;91.40;;;;;;5026439;28;20663;-72
2021/06/02 12:52:00;;;;;;;17.15;10.60;;;11.30;91.50;;;;;;5025927;28;20033;-68
2021/06/02 12:54:29;;;;;;;31.52;18.42;;;11.30;91.40;;;;;;5026468;28;20024;-68
2021/06/02 12:56:57;;;;;;;21.45;11.43;;;11.40;91.20;;;;;;5025276;28;20867;-70
2021/06/02 12:59:32;;;;;;;25.98;10.55;;;11.40;91.00;;;;;;5025606;28;20498;-71
2021/06/02 13:02:05;;;;;;;17.05;10.15;;;11.50;90.90;;;;;;5028656;28;20108;-69
2021/06/02 13:04:34;;;;;;;19.15;9.57;;;11.50;91.00;;;;;;5026756;28;20025;-65
2021/06/02 13:07:02;;;;;;;20.17;12.20;;;11.30;91.00;;;;;;5027972;28;20021;-71
2021/06/02 13:09:29;;;;;;;17.40;11.45;;;11.20;91.40;;;;;;5027191;28;20029;-70
2021/06/02 13:11:56;;;;;;;20.42;9.75;;;11.10;91.80;;;;;;5026454;28;20056;-68
2021/06/02 13:14:43;;;;;;;14.90;9.38;;;11.20;91.70;;;;;;5027348;28;20029;-68
2021/06/02 13:17:10;;;;;;;15.07;8.63;;;11.30;91.60;;;;;;5025731;28;20021;-71
2021/06/02 13:19:41;;;;;;;15.77;9.43;;;11.30;91.60;;;;;;5025182;28;20022;-72
2021/06/02 13:22:21;;;;;;;12.82;8.05;;;11.30;91.60;;;;;;5026507;28;20045;-68
2021/06/02 13:24:48;;;;;;;11.82;8.63;;;11.30;91.50;;;;;;5025738;28;20067;-70
2021/06/02 13:27:19;;;;;;;15.18;10.32;;;11.20;91.60;;;;;;5025001;28;20529;-72
2021/06/02 13:30:15;;;;;;;11.73;9.00;;;11.10;91.70;;;;;;5025038;28;20328;-68
2021/06/02 13:32:56;;;;;;;17.55;10.90;;;10.90;92.00;;;;;;5008961;28;20045;-70
2021/06/02 13:35:24;;;;;;;19.85;9.52;;;10.80;92.20;;;;;;5023025;28;20076;-69